sensor_id;sensor_type;location;lat;lon;timestamp;P1;durP1;ratioP1;P2;durP2;ratioP2
16075;SDS011;8142;48.242;11.644;2024-02-14T00:00:16;5.90;;;3.67;;
16075;SDS011;8142;48.242;11.644;2024-02-14T00:02:43;7.43;;;3.80;;
16075;SDS011;8142;48.242;11.644;2024-02-14T00:05:09;8.13;;;4.27;;
16075;SDS011;8142;48.242;11.644;2024-02-14T00:07:36;8.27;;;4.70;;
16075;SDS011;8142;48.242;11.644;2024-02-14T00:10:03;9.17;;;4.70;;
16075;SDS011;8142;48.242;11.644;2024-02-14T00:12:37;7.53;;;4.70;;
16075;SDS011;8142;48.242;11.644;2024-02-14T00:15:04;9.00;;;4.83;;
16075;SDS011;8142;48.242;11.644;2024-02-14T00:17:33;7.23;;;4.60;;
16075;SDS011;8142;48.242;11.644;2024-02-14T00:20:00;8.97;;;4.97;;
16075;SDS011;8142;48.242;11.644;2024-02-14T00:22:29;10.30;;;4.60;;
16075;SDS011;8142;48.242;11.644;2024-02-14T00:24:55;8.00;;;4.40;;
16075;SDS011;8142;48.242;11.644;2024-02-14T00:27:21;8.97;;;4.93;;
16075;SDS011;8142;48.242;11.644;2024-02-14T00:29:47;8.77;;;4.57;;
16075;SDS011;8142;48.242;11.644;2024-02-14T00:32:13;7.53;;;4.27;;
16075;SDS011;8142;48.242;11.644;2024-02-14T00:34:43;7.10;;;4.57;;
16075;SDS011;8142;48.242;11.644;2024-02-14T00:37:11;10.17;;;5.07;;
16075;SDS011;8142;48.242;11.644;2024-02-14T00:39:37;7.80;;;4.40;;
16075;SDS011;8142;48.242;11.644;2024-02-14T00:42:03;6.70;;;4.57;;
16075;SDS011;8142;48.242;11.644;2024-02-14T00:44:29;7.97;;;4.80;;
16075;SDS011;8142;48.242;11.644;2024-02-14T00:46:56;7.20;;;4.70;;
16075;SDS011;8142;48.242;11.644;2024-02-14T00:49:25;8.53;;;4.50;;
16075;SDS011;8142;48.242;11.644;2024-02-14T00:51:51;9.27;;;5.07;;
16075;SDS011;8142;48.242;11.644;2024-02-14T00:54:17;7.20;;;4.43;;
16075;SDS011;8142;48.242;11.644;2024-02-14T00:56:43;9.60;;;4.57;;
16075;SDS011;8142;48.242;11.644;2024-02-14T00:59:10;8.73;;;4.60;;
16075;SDS011;8142;48.242;11.644;2024-02-14T01:01:38;7.23;;;4.53;;
16075;SDS011;8142;48.242;11.644;2024-02-14T01:04:04;7.83;;;4.63;;
16075;SDS011;8142;48.242;11.644;2024-02-14T01:06:30;6.63;;;4.57;;
16075;SDS011;8142;48.242;11.644;2024-02-14T01:08:56;8.57;;;4.90;;
16075;SDS011;8142;48.242;11.644;2024-02-14T01:11:22;6.97;;;4.40;;
16075;SDS011;8142;48.242;11.644;2024-02-14T01:13:48;6.70;;;4.40;;
16075;SDS011;8142;48.242;11.644;2024-02-14T01:16:14;8.83;;;4.77;;
16075;SDS011;8142;48.242;11.644;2024-02-14T01:18:40;6.87;;;4.53;;
16075;SDS011;8142;48.242;11.644;2024-02-14T01:21:06;8.33;;;4.83;;
16075;SDS011;8142;48.242;11.644;2024-02-14T01:23:32;7.30;;;4.33;;
16075;SDS011;8142;48.242;11.644;2024-02-14T01:25:58;6.53;;;4.33;;
16075;SDS011;8142;48.242;11.644;2024-02-14T01:28:24;6.73;;;4.30;;
16075;SDS011;8142;48.242;11.644;2024-02-14T01:30:51;7.90;;;4.10;;
16075;SDS011;8142;48.242;11.644;2024-02-14T01:33:17;8.20;;;4.40;;
16075;SDS011;8142;48.242;11.644;2024-02-14T01:35:42;8.10;;;4.70;;
16075;SDS011;8142;48.242;11.644;2024-02-14T01:38:08;6.87;;;4.47;;
16075;SDS011;8142;48.242;11.644;2024-02-14T01:40:34;7.87;;;4.23;;
16075;SDS011;8142;48.242;11.644;2024-02-14T01:43:00;6.53;;;4.07;;
16075;SDS011;8142;48.242;11.644;2024-02-14T01:45:26;6.17;;;4.20;;
16075;SDS011;8142;48.242;11.644;2024-02-14T01:47:53;6.33;;;4.27;;
16075;SDS011;8142;48.242;11.644;2024-02-14T01:50:19;6.93;;;4.47;;
16075;SDS011;8142;48.242;11.644;2024-02-14T01:52:54;6.77;;;4.70;;
16075;SDS011;8142;48.242;11.644;2024-02-14T01:55:21;6.53;;;4.60;;
16075;SDS011;8142;48.242;11.644;2024-02-14T01:57:47;8.23;;;4.90;;
16075;SDS011;8142;48.242;11.644;2024-02-14T02:00:13;7.47;;;4.17;;
16075;SDS011;8142;48.242;11.644;2024-02-14T02:02:43;6.53;;;4.33;;
16075;SDS011;8142;48.242;11.644;2024-02-14T02:05:09;7.77;;;4.20;;
16075;SDS011;8142;48.242;11.644;2024-02-14T02:07:35;7.43;;;4.60;;
16075;SDS011;8142;48.242;11.644;2024-02-14T02:10:05;6.33;;;4.50;;
16075;SDS011;8142;48.242;11.644;2024-02-14T02:12:31;7.97;;;4.57;;
16075;SDS011;8142;48.242;11.644;2024-02-14T02:14:58;8.37;;;4.83;;
16075;SDS011;8142;48.242;11.644;2024-02-14T02:17:24;7.77;;;4.90;;
16075;SDS011;8142;48.242;11.644;2024-02-14T02:19:54;7.77;;;4.60;;
16075;SDS011;8142;48.242;11.644;2024-02-14T02:22:20;9.10;;;4.67;;
16075;SDS011;8142;48.242;11.644;2024-02-14T02:24:46;7.13;;;4.03;;
16075;SDS011;8142;48.242;11.644;2024-02-14T02:27:12;8.23;;;4.20;;
16075;SDS011;8142;48.242;11.644;2024-02-14T02:29:41;7.33;;;4.30;;
16075;SDS011;8142;48.242;11.644;2024-02-14T02:32:07;9.93;;;4.30;;
16075;SDS011;8142;48.242;11.644;2024-02-14T02:34:35;6.87;;;4.70;;
16075;SDS011;8142;48.242;11.644;2024-02-14T02:37:05;7.37;;;4.40;;
16075;SDS011;8142;48.242;11.644;2024-02-14T02:39:34;6.97;;;4.10;;
16075;SDS011;8142;48.242;11.644;2024-02-14T02:42:03;9.37;;;4.40;;
16075;SDS011;8142;48.242;11.644;2024-02-14T02:44:30;6.73;;;4.00;;
16075;SDS011;8142;48.242;11.644;2024-02-14T02:46:56;6.17;;;4.30;;
16075;SDS011;8142;48.242;11.644;2024-02-14T02:49:22;6.13;;;4.10;;
16075;SDS011;8142;48.242;11.644;2024-02-14T02:51:48;8.60;;;4.17;;
16075;SDS011;8142;48.242;11.644;2024-02-14T02:54:14;7.97;;;4.20;;
16075;SDS011;8142;48.242;11.644;2024-02-14T02:56:40;5.83;;;4.17;;
16075;SDS011;8142;48.242;11.644;2024-02-14T02:59:06;6.33;;;4.33;;
16075;SDS011;8142;48.242;11.644;2024-02-14T03:01:36;7.13;;;4.23;;
16075;SDS011;8142;48.242;11.644;2024-02-14T03:04:02;5.30;;;4.17;;
16075;SDS011;8142;48.242;11.644;2024-02-14T03:06:30;4.73;;;3.47;;
16075;SDS011;8142;48.242;11.644;2024-02-14T03:08:56;6.40;;;3.80;;
16075;SDS011;8142;48.242;11.644;2024-02-14T03:11:22;6.97;;;3.60;;
16075;SDS011;8142;48.242;11.644;2024-02-14T03:13:48;4.87;;;3.53;;
16075;SDS011;8142;48.242;11.644;2024-02-14T03:16:14;4.90;;;3.30;;
16075;SDS011;8142;48.242;11.644;2024-02-14T03:18:43;5.53;;;3.50;;
16075;SDS011;8142;48.242;11.644;2024-02-14T03:21:09;4.53;;;3.50;;
16075;SDS011;8142;48.242;11.644;2024-02-14T03:23:37;5.80;;;3.10;;
16075;SDS011;8142;48.242;11.644;2024-02-14T03:26:03;4.03;;;3.20;;
16075;SDS011;8142;48.242;11.644;2024-02-14T03:28:32;3.80;;;2.87;;
16075;SDS011;8142;48.242;11.644;2024-02-14T03:30:58;4.50;;;2.60;;
16075;SDS011;8142;48.242;11.644;2024-02-14T03:33:24;4.10;;;2.80;;
16075;SDS011;8142;48.242;11.644;2024-02-14T03:35:50;3.67;;;2.87;;
16075;SDS011;8142;48.242;11.644;2024-02-14T03:38:29;3.83;;;2.83;;
16075;SDS011;8142;48.242;11.644;2024-02-14T03:40:56;4.70;;;3.30;;
16075;SDS011;8142;48.242;11.644;2024-02-14T03:43:22;4.50;;;3.27;;
16075;SDS011;8142;48.242;11.644;2024-02-14T03:45:49;6.20;;;3.50;;
16075;SDS011;8142;48.242;11.644;2024-02-14T03:48:17;4.53;;;2.70;;
16075;SDS011;8142;48.242;11.644;2024-02-14T03:50:42;4.27;;;2.40;;
16075;SDS011;8142;48.242;11.644;2024-02-14T03:53:08;5.07;;;3.33;;
16075;SDS011;8142;48.242;11.644;2024-02-14T03:55:36;7.27;;;3.90;;
16075;SDS011;8142;48.242;11.644;2024-02-14T03:58:03;4.80;;;3.20;;
16075;SDS011;8142;48.242;11.644;2024-02-14T04:00:30;5.40;;;3.50;;
16075;SDS011;8142;48.242;11.644;2024-02-14T04:02:56;7.03;;;4.30;;
16075;SDS011;8142;48.242;11.644;2024-02-14T04:05:28;4.93;;;2.60;;
16075;SDS011;8142;48.242;11.644;2024-02-14T04:07:54;3.57;;;2.30;;
16075;SDS011;8142;48.242;11.644;2024-02-14T04:10:21;2.80;;;1.90;;
16075;SDS011;8142;48.242;11.644;2024-02-14T04:12:47;1.67;;;1.57;;
16075;SDS011;8142;48.242;11.644;2024-02-14T04:15:13;2.07;;;1.50;;
16075;SDS011;8142;48.242;11.644;2024-02-14T04:17:40;1.57;;;1.37;;
16075;SDS011;8142;48.242;11.644;2024-02-14T04:20:06;1.87;;;1.40;;
16075;SDS011;8142;48.242;11.644;2024-02-14T04:22:32;1.30;;;1.20;;
16075;SDS011;8142;48.242;11.644;2024-02-14T04:24:58;1.70;;;1.50;;
16075;SDS011;8142;48.242;11.644;2024-02-14T04:27:25;1.93;;;1.40;;
16075;SDS011;8142;48.242;11.644;2024-02-14T04:29:51;1.30;;;1.20;;
16075;SDS011;8142;48.242;11.644;2024-02-14T04:32:16;2.37;;;1.30;;
16075;SDS011;8142;48.242;11.644;2024-02-14T04:34:44;1.80;;;1.33;;
16075;SDS011;8142;48.242;11.644;2024-02-14T04:37:10;2.23;;;1.40;;
16075;SDS011;8142;48.242;11.644;2024-02-14T04:39:39;2.10;;;1.13;;
16075;SDS011;8142;48.242;11.644;2024-02-14T04:42:05;2.07;;;1.53;;
16075;SDS011;8142;48.242;11.644;2024-02-14T04:44:31;3.10;;;2.17;;
16075;SDS011;8142;48.242;11.644;2024-02-14T04:46:59;4.60;;;3.07;;
16075;SDS011;8142;48.242;11.644;2024-02-14T04:49:26;2.73;;;2.10;;
16075;SDS011;8142;48.242;11.644;2024-02-14T04:51:54;3.20;;;1.90;;
16075;SDS011;8142;48.242;11.644;2024-02-14T04:54:20;2.93;;;2.10;;
16075;SDS011;8142;48.242;11.644;2024-02-14T04:56:46;4.27;;;2.43;;
16075;SDS011;8142;48.242;11.644;2024-02-14T04:59:12;5.53;;;2.87;;
16075;SDS011;8142;48.242;11.644;2024-02-14T05:01:38;4.37;;;1.87;;
16075;SDS011;8142;48.242;11.644;2024-02-14T05:04:05;2.27;;;1.47;;
16075;SDS011;8142;48.242;11.644;2024-02-14T05:06:32;2.23;;;1.40;;
16075;SDS011;8142;48.242;11.644;2024-02-14T05:08:58;3.93;;;1.80;;
16075;SDS011;8142;48.242;11.644;2024-02-14T05:11:25;3.47;;;1.90;;
16075;SDS011;8142;48.242;11.644;2024-02-14T05:13:51;3.37;;;1.63;;
16075;SDS011;8142;48.242;11.644;2024-02-14T05:16:20;2.60;;;1.67;;
16075;SDS011;8142;48.242;11.644;2024-02-14T05:18:46;2.43;;;1.70;;
16075;SDS011;8142;48.242;11.644;2024-02-14T05:21:12;1.50;;;1.40;;
16075;SDS011;8142;48.242;11.644;2024-02-14T05:23:38;2.97;;;1.53;;
16075;SDS011;8142;48.242;11.644;2024-02-14T05:26:04;3.33;;;1.33;;
16075;SDS011;8142;48.242;11.644;2024-02-14T05:28:31;3.10;;;1.60;;
16075;SDS011;8142;48.242;11.644;2024-02-14T05:30:58;2.67;;;1.70;;
16075;SDS011;8142;48.242;11.644;2024-02-14T05:33:25;1.90;;;1.50;;
16075;SDS011;8142;48.242;11.644;2024-02-14T05:35:51;2.13;;;1.63;;
16075;SDS011;8142;48.242;11.644;2024-02-14T05:38:18;2.87;;;1.60;;
16075;SDS011;8142;48.242;11.644;2024-02-14T05:40:50;2.93;;;1.63;;
16075;SDS011;8142;48.242;11.644;2024-02-14T05:43:16;2.23;;;1.30;;
16075;SDS011;8142;48.242;11.644;2024-02-14T05:45:46;2.23;;;1.57;;
16075;SDS011;8142;48.242;11.644;2024-02-14T05:48:15;4.73;;;1.50;;
16075;SDS011;8142;48.242;11.644;2024-02-14T05:50:41;5.77;;;1.53;;
16075;SDS011;8142;48.242;11.644;2024-02-14T05:53:07;2.60;;;2.07;;
16075;SDS011;8142;48.242;11.644;2024-02-14T05:55:33;3.47;;;1.70;;
16075;SDS011;8142;48.242;11.644;2024-02-14T05:57:59;4.27;;;1.80;;
16075;SDS011;8142;48.242;11.644;2024-02-14T06:00:25;2.53;;;1.80;;
16075;SDS011;8142;48.242;11.644;2024-02-14T06:02:51;4.90;;;2.20;;
16075;SDS011;8142;48.242;11.644;2024-02-14T06:05:17;4.30;;;2.90;;
16075;SDS011;8142;48.242;11.644;2024-02-14T06:07:43;5.47;;;3.70;;
16075;SDS011;8142;48.242;11.644;2024-02-14T06:10:10;8.13;;;4.77;;
16075;SDS011;8142;48.242;11.644;2024-02-14T06:12:40;6.97;;;4.67;;
16075;SDS011;8142;48.242;11.644;2024-02-14T06:15:06;7.53;;;4.40;;
16075;SDS011;8142;48.242;11.644;2024-02-14T06:17:34;7.60;;;3.60;;
16075;SDS011;8142;48.242;11.644;2024-02-14T06:20:02;6.17;;;3.30;;
16075;SDS011;8142;48.242;11.644;2024-02-14T06:22:52;7.07;;;3.97;;
16075;SDS011;8142;48.242;11.644;2024-02-14T06:25:18;4.93;;;3.53;;
16075;SDS011;8142;48.242;11.644;2024-02-14T06:27:44;6.20;;;3.40;;
16075;SDS011;8142;48.242;11.644;2024-02-14T06:30:10;8.43;;;3.20;;
16075;SDS011;8142;48.242;11.644;2024-02-14T06:32:37;5.50;;;2.63;;
16075;SDS011;8142;48.242;11.644;2024-02-14T06:35:03;8.47;;;2.30;;
16075;SDS011;8142;48.242;11.644;2024-02-14T06:37:29;5.70;;;1.90;;
16075;SDS011;8142;48.242;11.644;2024-02-14T06:39:55;3.93;;;1.90;;
16075;SDS011;8142;48.242;11.644;2024-02-14T06:42:21;4.20;;;1.93;;
16075;SDS011;8142;48.242;11.644;2024-02-14T06:44:47;4.67;;;2.07;;
16075;SDS011;8142;48.242;11.644;2024-02-14T06:47:15;4.53;;;1.70;;
16075;SDS011;8142;48.242;11.644;2024-02-14T06:49:40;4.73;;;1.70;;
16075;SDS011;8142;48.242;11.644;2024-02-14T06:52:06;2.37;;;2.10;;
16075;SDS011;8142;48.242;11.644;2024-02-14T06:54:32;3.27;;;1.70;;
16075;SDS011;8142;48.242;11.644;2024-02-14T06:56:58;7.20;;;1.90;;
16075;SDS011;8142;48.242;11.644;2024-02-14T06:59:25;4.90;;;1.90;;
16075;SDS011;8142;48.242;11.644;2024-02-14T07:01:51;5.13;;;1.80;;
16075;SDS011;8142;48.242;11.644;2024-02-14T07:04:20;5.73;;;1.90;;
16075;SDS011;8142;48.242;11.644;2024-02-14T07:06:53;3.87;;;2.10;;
16075;SDS011;8142;48.242;11.644;2024-02-14T07:09:19;4.77;;;2.40;;
16075;SDS011;8142;48.242;11.644;2024-02-14T07:11:45;3.57;;;1.80;;
16075;SDS011;8142;48.242;11.644;2024-02-14T07:14:11;4.83;;;1.83;;
16075;SDS011;8142;48.242;11.644;2024-02-14T07:16:37;1.77;;;1.50;;
16075;SDS011;8142;48.242;11.644;2024-02-14T07:19:03;2.77;;;1.57;;
16075;SDS011;8142;48.242;11.644;2024-02-14T07:21:29;2.60;;;1.30;;
16075;SDS011;8142;48.242;11.644;2024-02-14T07:23:55;2.03;;;1.60;;
16075;SDS011;8142;48.242;11.644;2024-02-14T07:26:21;2.40;;;1.70;;
16075;SDS011;8142;48.242;11.644;2024-02-14T07:28:47;6.43;;;1.57;;
16075;SDS011;8142;48.242;11.644;2024-02-14T07:31:13;3.40;;;1.80;;
16075;SDS011;8142;48.242;11.644;2024-02-14T07:33:39;2.17;;;1.90;;
16075;SDS011;8142;48.242;11.644;2024-02-14T07:36:05;3.70;;;1.93;;
16075;SDS011;8142;48.242;11.644;2024-02-14T07:38:31;3.20;;;2.20;;
16075;SDS011;8142;48.242;11.644;2024-02-14T07:40:57;5.47;;;2.30;;
16075;SDS011;8142;48.242;11.644;2024-02-14T07:43:23;3.77;;;2.30;;
16075;SDS011;8142;48.242;11.644;2024-02-14T07:45:49;4.73;;;2.10;;
16075;SDS011;8142;48.242;11.644;2024-02-14T07:48:15;3.57;;;1.90;;
16075;SDS011;8142;48.242;11.644;2024-02-14T07:50:41;2.47;;;1.87;;
16075;SDS011;8142;48.242;11.644;2024-02-14T07:53:07;2.30;;;1.80;;
16075;SDS011;8142;48.242;11.644;2024-02-14T07:55:33;5.33;;;1.90;;
16075;SDS011;8142;48.242;11.644;2024-02-14T07:57:59;2.70;;;1.70;;
16075;SDS011;8142;48.242;11.644;2024-02-14T08:00:28;3.57;;;1.77;;
16075;SDS011;8142;48.242;11.644;2024-02-14T08:02:57;4.87;;;1.80;;
16075;SDS011;8142;48.242;11.644;2024-02-14T08:05:23;3.37;;;1.80;;
16075;SDS011;8142;48.242;11.644;2024-02-14T08:07:49;5.87;;;1.90;;
16075;SDS011;8142;48.242;11.644;2024-02-14T08:10:15;3.13;;;1.80;;
16075;SDS011;8142;48.242;11.644;2024-02-14T08:12:41;4.67;;;1.73;;
16075;SDS011;8142;48.242;11.644;2024-02-14T08:15:07;5.57;;;1.80;;
16075;SDS011;8142;48.242;11.644;2024-02-14T08:17:36;3.73;;;1.70;;
16075;SDS011;8142;48.242;11.644;2024-02-14T08:20:03;4.00;;;2.10;;
16075;SDS011;8142;48.242;11.644;2024-02-14T08:22:30;2.73;;;1.80;;
16075;SDS011;8142;48.242;11.644;2024-02-14T08:24:56;2.23;;;1.67;;
16075;SDS011;8142;48.242;11.644;2024-02-14T08:27:23;3.67;;;1.77;;
16075;SDS011;8142;48.242;11.644;2024-02-14T08:29:49;2.07;;;1.50;;
16075;SDS011;8142;48.242;11.644;2024-02-14T08:32:15;2.60;;;1.43;;
16075;SDS011;8142;48.242;11.644;2024-02-14T08:34:41;4.40;;;1.70;;
16075;SDS011;8142;48.242;11.644;2024-02-14T08:37:07;3.43;;;1.60;;
16075;SDS011;8142;48.242;11.644;2024-02-14T08:39:33;2.93;;;1.73;;
16075;SDS011;8142;48.242;11.644;2024-02-14T08:41:59;2.57;;;1.80;;
16075;SDS011;8142;48.242;11.644;2024-02-14T08:44:33;2.00;;;1.53;;
16075;SDS011;8142;48.242;11.644;2024-02-14T08:46:59;2.73;;;1.57;;
16075;SDS011;8142;48.242;11.644;2024-02-14T08:49:26;2.43;;;1.57;;
16075;SDS011;8142;48.242;11.644;2024-02-14T08:51:52;3.27;;;1.60;;
16075;SDS011;8142;48.242;11.644;2024-02-14T08:54:18;3.17;;;1.90;;
16075;SDS011;8142;48.242;11.644;2024-02-14T08:56:44;4.20;;;1.60;;
16075;SDS011;8142;48.242;11.644;2024-02-14T08:59:10;3.80;;;1.60;;
16075;SDS011;8142;48.242;11.644;2024-02-14T09:01:37;3.90;;;1.63;;
16075;SDS011;8142;48.242;11.644;2024-02-14T09:04:03;3.90;;;1.70;;
16075;SDS011;8142;48.242;11.644;2024-02-14T09:06:29;2.57;;;1.70;;
16075;SDS011;8142;48.242;11.644;2024-02-14T09:08:54;2.10;;;1.40;;
16075;SDS011;8142;48.242;11.644;2024-02-14T09:11:21;2.90;;;1.67;;
16075;SDS011;8142;48.242;11.644;2024-02-14T09:13:48;3.07;;;1.60;;
16075;SDS011;8142;48.242;11.644;2024-02-14T09:16:16;2.10;;;1.60;;
16075;SDS011;8142;48.242;11.644;2024-02-14T09:18:42;4.77;;;2.00;;
16075;SDS011;8142;48.242;11.644;2024-02-14T09:21:11;3.17;;;1.60;;
16075;SDS011;8142;48.242;11.644;2024-02-14T09:23:37;1.77;;;1.53;;
16075;SDS011;8142;48.242;11.644;2024-02-14T09:26:05;2.53;;;1.67;;
16075;SDS011;8142;48.242;11.644;2024-02-14T09:28:32;3.10;;;1.60;;
16075;SDS011;8142;48.242;11.644;2024-02-14T09:31:00;4.13;;;1.60;;
16075;SDS011;8142;48.242;11.644;2024-02-14T09:33:26;3.23;;;1.27;;
16075;SDS011;8142;48.242;11.644;2024-02-14T09:35:52;2.07;;;1.30;;
16075;SDS011;8142;48.242;11.644;2024-02-14T09:38:18;1.90;;;1.60;;
16075;SDS011;8142;48.242;11.644;2024-02-14T09:40:45;4.47;;;1.70;;
16075;SDS011;8142;48.242;11.644;2024-02-14T09:43:18;2.30;;;1.50;;
16075;SDS011;8142;48.242;11.644;2024-02-14T09:45:53;16.93;;;5.33;;
16075;SDS011;8142;48.242;11.644;2024-02-14T09:48:19;10.57;;;3.60;;
16075;SDS011;8142;48.242;11.644;2024-02-14T09:50:48;7.23;;;2.70;;
16075;SDS011;8142;48.242;11.644;2024-02-14T09:53:14;5.53;;;1.70;;
16075;SDS011;8142;48.242;11.644;2024-02-14T09:55:41;7.00;;;1.80;;
16075;SDS011;8142;48.242;11.644;2024-02-14T09:58:07;2.60;;;1.40;;
16075;SDS011;8142;48.242;11.644;2024-02-14T10:00:34;3.93;;;1.57;;
16075;SDS011;8142;48.242;11.644;2024-02-14T10:03:04;2.33;;;1.47;;
16075;SDS011;8142;48.242;11.644;2024-02-14T10:05:32;3.03;;;1.30;;
16075;SDS011;8142;48.242;11.644;2024-02-14T10:07:58;2.13;;;1.30;;
16075;SDS011;8142;48.242;11.644;2024-02-14T10:10:26;2.90;;;1.40;;
16075;SDS011;8142;48.242;11.644;2024-02-14T10:12:54;4.03;;;1.47;;
16075;SDS011;8142;48.242;11.644;2024-02-14T10:15:21;2.23;;;1.30;;
16075;SDS011;8142;48.242;11.644;2024-02-14T10:17:47;2.50;;;1.20;;
16075;SDS011;8142;48.242;11.644;2024-02-14T10:20:16;1.30;;;1.10;;
16075;SDS011;8142;48.242;11.644;2024-02-14T10:22:43;2.93;;;1.20;;
16075;SDS011;8142;48.242;11.644;2024-02-14T10:25:12;2.47;;;1.30;;
16075;SDS011;8142;48.242;11.644;2024-02-14T10:27:41;1.80;;;1.37;;
16075;SDS011;8142;48.242;11.644;2024-02-14T10:30:08;3.30;;;1.30;;
16075;SDS011;8142;48.242;11.644;2024-02-14T10:32:41;1.77;;;1.10;;
16075;SDS011;8142;48.242;11.644;2024-02-14T10:35:12;2.47;;;1.30;;
16075;SDS011;8142;48.242;11.644;2024-02-14T10:37:39;3.23;;;1.20;;
16075;SDS011;8142;48.242;11.644;2024-02-14T10:40:06;4.33;;;1.33;;
16075;SDS011;8142;48.242;11.644;2024-02-14T10:42:34;1.97;;;1.40;;
16075;SDS011;8142;48.242;11.644;2024-02-14T10:45:01;1.30;;;1.20;;
16075;SDS011;8142;48.242;11.644;2024-02-14T10:47:32;1.43;;;1.20;;
16075;SDS011;8142;48.242;11.644;2024-02-14T10:50:05;1.50;;;1.00;;
16075;SDS011;8142;48.242;11.644;2024-02-14T10:52:39;3.33;;;1.40;;
16075;SDS011;8142;48.242;11.644;2024-02-14T10:55:07;1.13;;;1.00;;
16075;SDS011;8142;48.242;11.644;2024-02-14T10:57:34;2.53;;;1.00;;
16075;SDS011;8142;48.242;11.644;2024-02-14T11:00:05;1.10;;;1.00;;
16075;SDS011;8142;48.242;11.644;2024-02-14T11:02:34;1.53;;;1.17;;
16075;SDS011;8142;48.242;11.644;2024-02-14T11:05:03;1.30;;;1.20;;
16075;SDS011;8142;48.242;11.644;2024-02-14T11:07:30;1.73;;;1.30;;
16075;SDS011;8142;48.242;11.644;2024-02-14T11:10:00;2.83;;;1.10;;
16075;SDS011;8142;48.242;11.644;2024-02-14T11:12:36;1.33;;;1.03;;
16075;SDS011;8142;48.242;11.644;2024-02-14T11:15:12;1.53;;;0.90;;
16075;SDS011;8142;48.242;11.644;2024-02-14T11:17:50;1.83;;;1.20;;
16075;SDS011;8142;48.242;11.644;2024-02-14T11:20:20;1.33;;;1.00;;
16075;SDS011;8142;48.242;11.644;2024-02-14T11:22:57;1.70;;;1.10;;
16075;SDS011;8142;48.242;11.644;2024-02-14T11:25:29;1.00;;;0.87;;
16075;SDS011;8142;48.242;11.644;2024-02-14T11:27:57;1.23;;;1.03;;
16075;SDS011;8142;48.242;11.644;2024-02-14T11:30:31;1.87;;;1.07;;
16075;SDS011;8142;48.242;11.644;2024-02-14T11:33:15;1.90;;;1.23;;
16075;SDS011;8142;48.242;11.644;2024-02-14T11:35:43;1.83;;;1.00;;
16075;SDS011;8142;48.242;11.644;2024-02-14T11:38:14;4.00;;;1.10;;
16075;SDS011;8142;48.242;11.644;2024-02-14T11:40:40;1.57;;;1.30;;
16075;SDS011;8142;48.242;11.644;2024-02-14T11:43:17;1.83;;;1.40;;
16075;SDS011;8142;48.242;11.644;2024-02-14T11:45:48;2.63;;;1.20;;
16075;SDS011;8142;48.242;11.644;2024-02-14T11:48:23;2.93;;;1.40;;
16075;SDS011;8142;48.242;11.644;2024-02-14T11:50:49;1.40;;;1.10;;
16075;SDS011;8142;48.242;11.644;2024-02-14T11:53:17;1.13;;;1.03;;
16075;SDS011;8142;48.242;11.644;2024-02-14T11:55:46;1.87;;;1.10;;
16075;SDS011;8142;48.242;11.644;2024-02-14T11:58:13;1.90;;;1.00;;
16075;SDS011;8142;48.242;11.644;2024-02-14T12:00:42;2.27;;;0.90;;
16075;SDS011;8142;48.242;11.644;2024-02-14T12:03:12;1.87;;;1.10;;
16075;SDS011;8142;48.242;11.644;2024-02-14T12:05:41;2.13;;;1.00;;
16075;SDS011;8142;48.242;11.644;2024-02-14T12:08:14;2.37;;;0.90;;
16075;SDS011;8142;48.242;11.644;2024-02-14T12:10:45;1.37;;;1.07;;
16075;SDS011;8142;48.242;11.644;2024-02-14T12:13:14;1.73;;;1.13;;
16075;SDS011;8142;48.242;11.644;2024-02-14T12:15:41;0.73;;;0.73;;
16075;SDS011;8142;48.242;11.644;2024-02-14T12:18:10;2.67;;;1.10;;
16075;SDS011;8142;48.242;11.644;2024-02-14T12:20:39;1.40;;;1.10;;
16075;SDS011;8142;48.242;11.644;2024-02-14T12:23:13;0.97;;;0.90;;
16075;SDS011;8142;48.242;11.644;2024-02-14T12:25:44;1.03;;;1.00;;
16075;SDS011;8142;48.242;11.644;2024-02-14T12:28:18;1.70;;;1.20;;
16075;SDS011;8142;48.242;11.644;2024-02-14T12:33:26;2.10;;;1.00;;
16075;SDS011;8142;48.242;11.644;2024-02-14T12:35:53;1.03;;;0.97;;
16075;SDS011;8142;48.242;11.644;2024-02-14T12:38:22;1.30;;;0.80;;
16075;SDS011;8142;48.242;11.644;2024-02-14T12:40:49;0.83;;;0.73;;
16075;SDS011;8142;48.242;11.644;2024-02-14T12:43:16;1.57;;;0.80;;
16075;SDS011;8142;48.242;11.644;2024-02-14T12:45:43;1.10;;;0.80;;
16075;SDS011;8142;48.242;11.644;2024-02-14T12:48:10;1.27;;;0.80;;
16075;SDS011;8142;48.242;11.644;2024-02-14T12:50:39;2.30;;;0.77;;
16075;SDS011;8142;48.242;11.644;2024-02-14T12:53:07;1.33;;;0.80;;
16075;SDS011;8142;48.242;11.644;2024-02-14T12:55:34;0.90;;;0.80;;
16075;SDS011;8142;48.242;11.644;2024-02-14T12:58:00;1.70;;;0.80;;
16075;SDS011;8142;48.242;11.644;2024-02-14T13:00:27;2.83;;;1.00;;
16075;SDS011;8142;48.242;11.644;2024-02-14T13:02:54;1.90;;;0.90;;
16075;SDS011;8142;48.242;11.644;2024-02-14T13:05:20;1.07;;;0.70;;
16075;SDS011;8142;48.242;11.644;2024-02-14T13:07:47;1.50;;;1.07;;
16075;SDS011;8142;48.242;11.644;2024-02-14T13:10:14;0.90;;;0.90;;
16075;SDS011;8142;48.242;11.644;2024-02-14T13:12:40;2.13;;;0.87;;
16075;SDS011;8142;48.242;11.644;2024-02-14T13:15:08;0.93;;;0.73;;
16075;SDS011;8142;48.242;11.644;2024-02-14T13:17:35;0.90;;;0.80;;
16075;SDS011;8142;48.242;11.644;2024-02-14T13:20:02;0.93;;;0.70;;
16075;SDS011;8142;48.242;11.644;2024-02-14T13:22:28;2.60;;;1.00;;
16075;SDS011;8142;48.242;11.644;2024-02-14T13:24:54;0.93;;;0.80;;
16075;SDS011;8142;48.242;11.644;2024-02-14T13:27:21;0.80;;;0.80;;
16075;SDS011;8142;48.242;11.644;2024-02-14T13:29:48;0.93;;;0.87;;
16075;SDS011;8142;48.242;11.644;2024-02-14T13:32:15;1.13;;;0.80;;
16075;SDS011;8142;48.242;11.644;2024-02-14T13:34:41;0.70;;;0.70;;
16075;SDS011;8142;48.242;11.644;2024-02-14T13:37:09;2.07;;;0.80;;
16075;SDS011;8142;48.242;11.644;2024-02-14T13:39:36;2.00;;;0.97;;
16075;SDS011;8142;48.242;11.644;2024-02-14T13:42:02;1.17;;;0.90;;
16075;SDS011;8142;48.242;11.644;2024-02-14T13:44:28;1.33;;;1.13;;
16075;SDS011;8142;48.242;11.644;2024-02-14T13:46:55;0.93;;;0.77;;
16075;SDS011;8142;48.242;11.644;2024-02-14T13:49:21;0.80;;;0.80;;
16075;SDS011;8142;48.242;11.644;2024-02-14T13:51:48;0.93;;;0.80;;
16075;SDS011;8142;48.242;11.644;2024-02-14T13:54:17;0.80;;;0.80;;
16075;SDS011;8142;48.242;11.644;2024-02-14T13:56:46;2.67;;;0.70;;
16075;SDS011;8142;48.242;11.644;2024-02-14T13:59:15;1.00;;;0.80;;
16075;SDS011;8142;48.242;11.644;2024-02-14T14:01:42;1.10;;;0.97;;
16075;SDS011;8142;48.242;11.644;2024-02-14T14:04:08;0.73;;;0.67;;
16075;SDS011;8142;48.242;11.644;2024-02-14T14:06:34;2.07;;;1.00;;
16075;SDS011;8142;48.242;11.644;2024-02-14T14:09:00;0.90;;;0.90;;
16075;SDS011;8142;48.242;11.644;2024-02-14T14:11:28;1.47;;;1.00;;
16075;SDS011;8142;48.242;11.644;2024-02-14T14:13:54;1.27;;;0.93;;
16075;SDS011;8142;48.242;11.644;2024-02-14T14:16:20;1.70;;;0.90;;
16075;SDS011;8142;48.242;11.644;2024-02-14T14:18:48;4.50;;;1.20;;
16075;SDS011;8142;48.242;11.644;2024-02-14T14:21:14;2.20;;;1.20;;
16075;SDS011;8142;48.242;11.644;2024-02-14T14:23:40;1.83;;;0.80;;
16075;SDS011;8142;48.242;11.644;2024-02-14T14:26:06;1.00;;;0.90;;
16075;SDS011;8142;48.242;11.644;2024-02-14T14:28:32;1.70;;;0.90;;
16075;SDS011;8142;48.242;11.644;2024-02-14T14:30:58;2.30;;;0.90;;
16075;SDS011;8142;48.242;11.644;2024-02-14T14:33:25;0.90;;;0.67;;
16075;SDS011;8142;48.242;11.644;2024-02-14T14:35:52;1.13;;;0.90;;
16075;SDS011;8142;48.242;11.644;2024-02-14T14:38:19;0.80;;;0.80;;
16075;SDS011;8142;48.242;11.644;2024-02-14T14:40:46;2.10;;;1.00;;
16075;SDS011;8142;48.242;11.644;2024-02-14T14:43:12;1.20;;;0.60;;
16075;SDS011;8142;48.242;11.644;2024-02-14T14:45:38;1.10;;;1.00;;
16075;SDS011;8142;48.242;11.644;2024-02-14T14:48:06;2.77;;;0.90;;
16075;SDS011;8142;48.242;11.644;2024-02-14T14:50:33;1.37;;;0.80;;